createdAt,value
2019-06-20T00:00:38.393Z,4.20
2019-06-20T00:03:06.453Z,4.53
2019-06-20T00:05:34.590Z,3.80
2019-06-20T00:08:02.714Z,3.93
2019-06-20T00:10:31.400Z,3.83
2019-06-20T00:13:00.745Z,4.63
2019-06-20T00:15:28.703Z,4.40
2019-06-20T00:17:58.713Z,3.57
2019-06-20T00:20:27.261Z,4.40
2019-06-20T00:22:57.729Z,4.07
2019-06-20T00:25:26.603Z,3.27
2019-06-20T00:27:54.994Z,3.57
2019-06-20T00:30:23.565Z,3.10
2019-06-20T00:32:52.085Z,3.63
2019-06-20T00:35:20.798Z,3.50
2019-06-20T00:37:49.202Z,3.40
2019-06-20T00:40:17.592Z,3.53
2019-06-20T00:42:45.252Z,3.30
2019-06-20T00:45:13.729Z,3.27
2019-06-20T00:47:44.263Z,3.43
2019-06-20T00:50:12.544Z,3.20
2019-06-20T00:52:40.899Z,2.90
2019-06-20T00:55:09.008Z,2.93
2019-06-20T00:57:37.435Z,2.93
2019-06-20T01:00:06.097Z,2.60
2019-06-20T01:02:34.510Z,2.90
2019-06-20T01:05:02.317Z,2.53
2019-06-20T01:07:31.004Z,3.43
2019-06-20T01:09:59.623Z,2.87
2019-06-20T01:12:28.583Z,3.33
2019-06-20T01:14:56.135Z,3.13
2019-06-20T01:17:24.643Z,3.23
2019-06-20T01:19:53.349Z,3.07
2019-06-20T01:22:21.324Z,3.37
2019-06-20T01:24:49.373Z,3.00
2019-06-20T01:27:17.408Z,3.17
2019-06-20T01:29:45.434Z,2.83
2019-06-20T01:32:14.152Z,3.10
2019-06-20T01:34:42.569Z,2.67
2019-06-20T01:37:10.195Z,3.00
2019-06-20T01:39:38.321Z,3.30
2019-06-20T01:42:06.677Z,3.03
2019-06-20T01:44:35.449Z,4.00
2019-06-20T01:47:04.347Z,3.87
2019-06-20T01:49:32.303Z,3.57
2019-06-20T01:52:04.947Z,3.23
2019-06-20T01:54:34.511Z,3.20
2019-06-20T01:57:02.885Z,3.53
2019-06-20T01:59:30.546Z,3.93
2019-06-20T02:01:58.940Z,2.70
2019-06-20T02:04:29.468Z,3.30
2019-06-20T02:06:57.519Z,3.70
2019-06-20T02:09:26.521Z,3.60
2019-06-20T02:11:54.504Z,3.67
2019-06-20T02:14:22.271Z,3.73
2019-06-20T02:16:52.373Z,3.07
2019-06-20T02:19:20.450Z,3.30
2019-06-20T02:21:49.451Z,3.87
2019-06-20T02:24:17.096Z,4.00
2019-06-20T02:26:45.157Z,3.10
2019-06-20T02:29:13.256Z,4.17
2019-06-20T02:31:40.807Z,3.67
2019-06-20T02:34:09.690Z,3.13
2019-06-20T02:36:38.439Z,3.40
2019-06-20T02:39:07.599Z,3.27
2019-06-20T02:41:36.776Z,2.90
2019-06-20T02:44:04.838Z,3.53
2019-06-20T02:46:33.415Z,3.63
2019-06-20T02:49:01.797Z,3.70
2019-06-20T02:51:30.054Z,3.73
2019-06-20T02:54:00.839Z,3.47
2019-06-20T02:56:29.628Z,3.33
2019-06-20T02:58:58.440Z,3.50
2019-06-20T03:01:26.979Z,4.10
2019-06-20T03:03:54.671Z,3.70
2019-06-20T03:06:22.615Z,3.53
2019-06-20T03:08:51.099Z,3.40
2019-06-20T03:11:19.476Z,3.70
2019-06-20T03:13:47.843Z,3.57
2019-06-20T03:16:17.691Z,4.07
2019-06-20T03:18:45.630Z,3.73
2019-06-20T03:21:13.326Z,3.80
2019-06-20T03:23:41.609Z,3.10
2019-06-20T03:26:09.968Z,3.03
2019-06-20T03:28:37.936Z,3.00
2019-06-20T03:31:05.911Z,3.60
2019-06-20T03:33:34.494Z,3.13
2019-06-20T03:36:03.069Z,3.90
2019-06-20T03:38:32.592Z,3.40
2019-06-20T03:41:00.680Z,3.10
2019-06-20T03:43:29.029Z,3.30
2019-06-20T03:45:57.518Z,3.00
2019-06-20T03:48:27.065Z,3.57
2019-06-20T03:50:55.392Z,3.20
2019-06-20T03:53:23.655Z,3.47
2019-06-20T03:55:52.061Z,2.83
2019-06-20T03:58:20.610Z,2.40
2019-06-20T04:00:48.321Z,3.20
2019-06-20T04:03:19.285Z,2.87
2019-06-20T04:05:46.702Z,3.50
2019-06-20T04:08:14.425Z,2.70
2019-06-20T04:10:42.528Z,3.20
2019-06-20T04:13:10.937Z,3.33
2019-06-20T04:15:38.873Z,3.27
2019-06-20T04:18:06.854Z,3.37
2019-06-20T04:20:35.242Z,3.17
2019-06-20T04:23:03.206Z,3.70
2019-06-20T04:25:33.528Z,2.80
2019-06-20T04:28:01.935Z,2.60
2019-06-20T04:30:29.917Z,3.20
2019-06-20T04:32:57.545Z,3.00
2019-06-20T04:35:25.203Z,3.27
2019-06-20T04:37:52.871Z,2.97
2019-06-20T04:40:22.911Z,2.77
2019-06-20T04:42:53.821Z,2.47
2019-06-20T04:45:35.423Z,3.13
2019-06-20T04:48:02.835Z,3.40
2019-06-20T04:50:31.258Z,2.90
2019-06-20T04:52:58.853Z,3.43
2019-06-20T04:55:26.895Z,3.10
2019-06-20T04:57:54.842Z,3.43
2019-06-20T05:00:22.594Z,2.80
2019-06-20T05:02:51.404Z,3.30
2019-06-20T05:05:19.502Z,2.93
2019-06-20T05:07:47.756Z,2.90
2019-06-20T05:10:16.240Z,3.23
2019-06-20T05:12:45.523Z,2.97
2019-06-20T05:15:14.884Z,2.57
2019-06-20T05:17:42.938Z,2.30
2019-06-20T05:20:12.110Z,2.47
2019-06-20T05:22:40.264Z,2.57
2019-06-20T05:25:08.408Z,3.00
2019-06-20T05:27:36.854Z,3.00
2019-06-20T05:30:06.963Z,1.93
2019-06-20T05:32:35.239Z,2.57
2019-06-20T05:35:04.181Z,2.73
2019-06-20T05:37:33.538Z,2.30
2019-06-20T05:40:01.504Z,2.27
2019-06-20T05:42:29.879Z,2.60
2019-06-20T05:44:58.967Z,2.40
2019-06-20T05:47:27.247Z,2.40
2019-06-20T05:49:57.264Z,2.60
2019-06-20T05:52:25.250Z,2.43
2019-06-20T05:54:56.939Z,2.13
2019-06-20T05:57:25.421Z,2.53
2019-06-20T05:59:52.750Z,1.90
2019-06-20T06:02:20.941Z,2.30
2019-06-20T06:04:49.091Z,2.77
2019-06-20T06:07:17.491Z,2.53
2019-06-20T06:09:45.675Z,1.97
2019-06-20T06:12:13.556Z,2.50
2019-06-20T06:14:41.892Z,2.90
2019-06-20T06:17:10.721Z,2.10
2019-06-20T06:19:38.758Z,2.50
2019-06-20T06:22:06.540Z,2.00
2019-06-20T06:24:34.989Z,2.20
2019-06-20T06:27:03.375Z,2.70
2019-06-20T06:29:31.047Z,2.53
2019-06-20T06:31:59.432Z,1.80
2019-06-20T06:34:27.810Z,2.30
2019-06-20T06:36:56.633Z,2.57
2019-06-20T06:39:25.059Z,2.97
2019-06-20T06:41:52.773Z,2.60
2019-06-20T06:44:20.724Z,2.40
2019-06-20T06:46:55.395Z,2.47
2019-06-20T06:49:18.998Z,1.97
2019-06-20T06:51:46.690Z,2.60
2019-06-20T06:54:14.035Z,2.70
2019-06-20T06:56:42.314Z,2.40
2019-06-20T06:59:10.565Z,2.80
2019-06-20T07:01:42.180Z,2.30
2019-06-20T07:04:09.780Z,2.90
2019-06-20T07:06:37.896Z,2.40
2019-06-20T07:09:08.015Z,2.30
2019-06-20T07:11:38.491Z,2.30
2019-06-20T07:14:07.446Z,2.47
2019-06-20T07:16:36.049Z,2.90
2019-06-20T07:19:03.971Z,2.27
2019-06-20T07:21:33.269Z,3.03
2019-06-20T07:24:01.031Z,2.60
2019-06-20T07:26:29.150Z,2.73
2019-06-20T07:28:57.628Z,2.40
2019-06-20T07:31:29.472Z,2.70
2019-06-20T07:33:57.756Z,2.30
2019-06-20T07:36:27.197Z,2.40
2019-06-20T07:38:55.987Z,2.30
2019-06-20T07:41:24.001Z,2.03
2019-06-20T07:43:52.593Z,2.47
2019-06-20T07:46:20.597Z,2.27
2019-06-20T07:48:48.603Z,2.53
2019-06-20T07:51:17.350Z,2.40
2019-06-20T07:53:47.337Z,2.40
2019-06-20T07:56:15.901Z,1.70
2019-06-20T07:58:45.020Z,1.90
2019-06-20T08:01:13.620Z,2.37
2019-06-20T08:03:45.112Z,2.23
2019-06-20T08:06:11.864Z,2.30
2019-06-20T08:08:40.677Z,2.37
2019-06-20T08:11:09.090Z,2.10
2019-06-20T08:13:37.425Z,2.07
2019-06-20T08:16:05.854Z,2.17
2019-06-20T08:18:33.545Z,2.23
2019-06-20T08:21:02.174Z,1.80
2019-06-20T08:23:29.933Z,2.03
2019-06-20T08:25:59.203Z,1.90
2019-06-20T08:28:28.644Z,2.10
2019-06-20T08:30:57.712Z,2.37
2019-06-20T08:33:29.052Z,1.90
2019-06-20T08:35:58.936Z,1.97
2019-06-20T08:38:28.392Z,1.87
2019-06-20T08:40:58.352Z,2.30
2019-06-20T08:43:26.596Z,2.20
2019-06-20T08:45:56.121Z,1.97
2019-06-20T08:48:23.947Z,2.40
2019-06-20T08:50:51.932Z,1.80
2019-06-20T08:53:20.409Z,2.10
2019-06-20T08:55:49.524Z,2.53
2019-06-20T08:58:17.686Z,2.20
2019-06-20T09:00:46.339Z,2.73
2019-06-20T09:03:15.976Z,2.10
2019-06-20T09:05:43.775Z,2.23
2019-06-20T09:08:13.329Z,2.33
2019-06-20T09:10:42.583Z,2.17
2019-06-20T09:13:12.248Z,2.70
2019-06-20T09:15:43.005Z,2.50
2019-06-20T09:18:12.277Z,2.53
2019-06-20T09:20:40.274Z,2.17
2019-06-20T09:23:08.841Z,2.80
2019-06-20T09:25:38.899Z,2.60
2019-06-20T09:28:06.620Z,2.50
2019-06-20T09:30:35.609Z,2.90
2019-06-20T09:33:04.160Z,2.40
2019-06-20T09:35:34.951Z,2.30
2019-06-20T09:38:03.900Z,2.30
2019-06-20T09:40:32.574Z,2.23
2019-06-20T09:43:00.681Z,2.73
2019-06-20T09:45:29.471Z,2.70
2019-06-20T09:47:58.278Z,2.70
2019-06-20T09:50:26.838Z,2.60
2019-06-20T09:52:56.642Z,2.30
2019-06-20T09:55:25.141Z,1.80
2019-06-20T09:57:53.943Z,2.23
2019-06-20T10:00:24.419Z,1.73
2019-06-20T10:02:55.382Z,1.90
2019-06-20T10:05:22.149Z,2.17
2019-06-20T10:07:50.297Z,2.10
2019-06-20T10:10:26.993Z,2.10
2019-06-20T10:12:55.790Z,2.10
2019-06-20T10:15:25.056Z,2.17
2019-06-20T10:17:54.445Z,1.93
2019-06-20T10:20:26.678Z,1.70
2019-06-20T10:22:54.484Z,2.23
2019-06-20T10:25:24.326Z,2.50
2019-06-20T10:27:53.583Z,2.60
2019-06-20T10:30:23.593Z,2.37
2019-06-20T10:32:53.247Z,2.20
2019-06-20T10:35:22.155Z,2.03
2019-06-20T10:37:50.455Z,2.30
2019-06-20T10:40:20.142Z,1.90
2019-06-20T10:45:27.649Z,2.00
2019-06-20T10:47:55.835Z,2.43
2019-06-20T10:50:24.816Z,2.13
2019-06-20T10:52:52.851Z,2.73
2019-06-20T10:55:21.998Z,2.53
2019-06-20T10:57:51.733Z,2.57
2019-06-20T11:00:31.347Z,2.50
2019-06-20T11:02:57.412Z,2.80
2019-06-20T11:05:26.664Z,2.10
2019-06-20T11:08:02.136Z,2.30
2019-06-20T11:10:33.747Z,2.60
2019-06-20T11:13:06.405Z,2.47
2019-06-20T11:15:37.517Z,2.53
2019-06-20T11:18:06.620Z,2.00
2019-06-20T11:20:34.692Z,2.53
2019-06-20T11:23:02.880Z,2.10
2019-06-20T11:25:31.005Z,2.40
2019-06-20T11:27:59.031Z,2.67
2019-06-20T11:30:27.985Z,1.97
2019-06-20T11:33:07.999Z,2.70
2019-06-20T11:35:39.261Z,1.87
2019-06-20T11:38:07.344Z,2.20
2019-06-20T11:40:36.802Z,2.33
2019-06-20T11:43:06.731Z,1.90
2019-06-20T11:45:40.921Z,1.70
2019-06-20T11:48:09.873Z,2.00
2019-06-20T11:50:37.975Z,1.90
2019-06-20T11:53:06.542Z,1.60
2019-06-20T11:55:34.579Z,1.47
2019-06-20T11:58:03.408Z,1.80
2019-06-20T12:00:31.212Z,1.97
2019-06-20T12:03:01.278Z,1.60
2019-06-20T12:05:34.691Z,1.70
2019-06-20T12:08:02.741Z,1.80
2019-06-20T12:10:38.029Z,2.33
2019-06-20T12:13:09.512Z,1.97
2019-06-20T12:15:39.385Z,2.60
2019-06-20T12:18:09.445Z,1.93
2019-06-20T12:20:37.889Z,1.60
2019-06-20T12:23:06.021Z,1.80
2019-06-20T12:25:36.328Z,1.70
2019-06-20T12:28:06.772Z,1.60
2019-06-20T12:30:38.430Z,1.70
2019-06-20T12:33:07.016Z,1.40
2019-06-20T12:35:35.923Z,2.03
2019-06-20T12:38:04.713Z,1.63
2019-06-20T12:40:33.171Z,1.63
2019-06-20T12:43:11.520Z,1.40
2019-06-20T12:45:47.489Z,1.50
2019-06-20T12:48:18.508Z,1.90
2019-06-20T12:50:58.054Z,1.90
2019-06-20T12:53:26.144Z,1.63
2019-06-20T12:55:56.650Z,1.77
2019-06-20T12:58:25.438Z,1.73
2019-06-20T13:00:55.188Z,1.80
2019-06-20T13:03:25.648Z,1.87
2019-06-20T13:05:53.844Z,1.87
2019-06-20T13:08:23.692Z,1.63
2019-06-20T13:10:52.679Z,1.83
2019-06-20T13:13:20.276Z,1.97
2019-06-20T13:15:48.950Z,1.70
2019-06-20T13:18:16.663Z,1.90
2019-06-20T13:20:46.448Z,2.10
2019-06-20T13:23:15.183Z,1.93
2019-06-20T13:25:42.950Z,2.10
2019-06-20T13:28:14.476Z,1.77
2019-06-20T13:30:47.354Z,2.20
2019-06-20T13:33:13.166Z,2.40
2019-06-20T13:35:42.332Z,1.93
2019-06-20T13:38:11.209Z,1.93
2019-06-20T13:40:40.257Z,1.90
2019-06-20T13:43:09.264Z,1.90
2019-06-20T13:45:37.313Z,2.17
2019-06-20T13:48:06.199Z,2.20
2019-06-20T13:50:34.215Z,1.77
2019-06-20T13:53:05.244Z,2.23
2019-06-20T13:55:33.823Z,1.50
2019-06-20T13:58:02.196Z,1.60
2019-06-20T14:00:31.997Z,1.70
2019-06-20T14:03:00.821Z,1.90
2019-06-20T14:05:30.631Z,1.70
2019-06-20T14:07:59.622Z,1.73
2019-06-20T14:10:27.657Z,1.90
2019-06-20T14:12:55.327Z,1.53
2019-06-20T14:15:27.124Z,1.50
2019-06-20T14:17:55.187Z,1.43
2019-06-20T14:20:25.449Z,1.50
2019-06-20T14:22:54.574Z,1.80
2019-06-20T14:25:23.285Z,1.90
2019-06-20T14:27:51.694Z,1.73
2019-06-20T14:30:23.670Z,1.57
2019-06-20T14:32:53.775Z,1.83
2019-06-20T14:35:22.573Z,1.10
2019-06-20T14:37:52.212Z,1.30
2019-06-20T14:40:20.533Z,1.20
2019-06-20T14:42:50.280Z,1.30
2019-06-20T14:45:19.749Z,1.20
2019-06-20T14:47:48.209Z,1.67
2019-06-20T14:50:20.745Z,1.30
2019-06-20T14:52:49.948Z,1.60
2019-06-20T14:55:19.088Z,1.57
2019-06-20T14:57:50.432Z,1.40
2019-06-20T15:00:21.284Z,1.90
2019-06-20T15:02:54.900Z,2.43
2019-06-20T15:05:24.384Z,1.40
2019-06-20T15:07:55.953Z,1.53
2019-06-20T15:10:24.264Z,1.87
2019-06-20T15:12:55.853Z,1.80
2019-06-20T15:15:30.846Z,1.47
2019-06-20T15:18:01.406Z,2.07
2019-06-20T15:20:34.602Z,1.60
2019-06-20T15:23:05.811Z,1.60
2019-06-20T15:25:36.615Z,1.43
2019-06-20T15:28:06.397Z,1.57
2019-06-20T15:30:35.584Z,1.30
2019-06-20T15:33:10.363Z,2.07
2019-06-20T15:35:37.116Z,2.07
2019-06-20T15:38:06.447Z,1.67
2019-06-20T15:40:41.941Z,1.87
2019-06-20T15:43:11.596Z,1.80
2019-06-20T15:45:42.687Z,1.70
2019-06-20T15:48:10.982Z,1.80
2019-06-20T15:50:39.481Z,3.50
2019-06-20T15:53:07.326Z,1.63
2019-06-20T15:55:38.149Z,1.47
2019-06-20T15:58:06.497Z,2.00
2019-06-20T16:00:35.205Z,1.47
2019-06-20T16:03:10.219Z,1.70
2019-06-20T16:05:40.493Z,2.03
2019-06-20T16:08:06.992Z,5.53
2019-06-20T16:10:36.500Z,2.70
2019-06-20T16:13:05.976Z,2.03
2019-06-20T16:15:35.074Z,2.07
2019-06-20T16:18:04.859Z,1.87
2019-06-20T16:20:33.833Z,2.10
2019-06-20T16:23:04.502Z,1.90
2019-06-20T16:25:38.716Z,1.23
2019-06-20T16:28:08.632Z,2.20
2019-06-20T16:30:36.309Z,1.60
2019-06-20T16:33:25.147Z,1.93
2019-06-20T16:35:52.851Z,1.30
2019-06-20T16:38:28.831Z,1.90
2019-06-20T16:41:00.379Z,1.60
2019-06-20T16:43:35.671Z,1.47
2019-06-20T16:46:09.937Z,1.30
2019-06-20T16:48:43.901Z,1.57
2019-06-20T16:51:18.160Z,1.00
2019-06-20T16:53:50.855Z,1.03
2019-06-20T16:56:23.523Z,1.20
2019-06-20T16:59:04.861Z,1.07
2019-06-20T17:01:33.806Z,1.73
2019-06-20T17:04:09.366Z,1.73
2019-06-20T17:06:42.793Z,1.33
2019-06-20T17:09:12.062Z,0.80
2019-06-20T17:11:53.345Z,1.40
2019-06-20T17:14:23.050Z,1.40
2019-06-20T17:16:55.362Z,1.00
2019-06-20T17:19:31.758Z,1.47
2019-06-20T17:22:06.419Z,1.80
2019-06-20T17:24:37.278Z,1.20
2019-06-20T17:27:09.989Z,1.10
2019-06-20T17:29:40.822Z,1.40
2019-06-20T17:32:15.984Z,1.20
2019-06-20T17:34:49.678Z,1.07
2019-06-20T17:37:21.521Z,1.20
2019-06-20T17:39:54.452Z,0.70
2019-06-20T17:42:25.316Z,1.00
2019-06-20T17:44:56.266Z,1.20
2019-06-20T17:47:28.887Z,1.13
2019-06-20T17:50:06.925Z,0.80
2019-06-20T17:52:37.771Z,1.20
2019-06-20T17:55:10.527Z,1.10
2019-06-20T17:57:42.015Z,1.40
2019-06-20T18:00:16.553Z,1.27
2019-06-20T18:02:45.525Z,1.23
2019-06-20T18:05:22.596Z,1.10
2019-06-20T18:07:52.282Z,1.20
2019-06-20T18:10:26.391Z,1.20
2019-06-20T18:12:58.504Z,1.10
2019-06-20T18:18:20.719Z,1.50
2019-06-20T18:20:54.517Z,1.77
2019-06-20T18:23:27.726Z,1.37
2019-06-20T18:26:02.844Z,1.33
2019-06-20T18:28:35.279Z,1.23
2019-06-20T18:31:07.753Z,1.33
2019-06-20T18:33:38.622Z,1.00
2019-06-20T18:36:12.594Z,1.87
2019-06-20T18:38:42.120Z,1.30
2019-06-20T18:41:13.851Z,1.50
2019-06-20T18:43:46.394Z,1.30
2019-06-20T18:46:18.625Z,1.83
2019-06-20T18:48:55.333Z,1.47
2019-06-20T18:51:26.004Z,1.73
2019-06-20T18:53:59.198Z,1.40
2019-06-20T18:56:30.317Z,1.73
2019-06-20T18:59:00.987Z,1.33
2019-06-20T19:01:36.425Z,1.30
2019-06-20T19:04:12.038Z,1.30
2019-06-20T19:07:03.805Z,1.30
2019-06-20T19:09:36.854Z,1.40
2019-06-20T19:12:27.275Z,1.27
2019-06-20T19:15:01.179Z,1.50
2019-06-20T19:17:36.008Z,1.37
2019-06-20T19:20:18.100Z,1.53
2019-06-20T19:25:43.423Z,1.43
2019-06-20T19:28:34.785Z,1.30
2019-06-20T19:31:08.152Z,1.37
2019-06-20T19:33:38.783Z,1.20
2019-06-20T19:36:06.533Z,1.43
2019-06-20T19:38:39.228Z,1.73
2019-06-20T19:41:11.929Z,1.47
2019-06-20T19:44:02.090Z,1.30
2019-06-20T19:46:35.445Z,1.50
2019-06-20T19:49:04.968Z,1.70
2019-06-20T19:51:38.993Z,1.80
2019-06-20T19:54:09.767Z,1.20
2019-06-20T19:56:39.827Z,1.10
2019-06-20T19:59:18.299Z,1.63
2019-06-20T20:01:46.771Z,1.80
2019-06-20T20:04:19.100Z,1.60
2019-06-20T20:06:55.046Z,1.57
2019-06-20T20:09:28.287Z,1.60
2019-06-20T20:11:58.483Z,1.37
2019-06-20T20:14:29.227Z,1.40
2019-06-20T20:16:59.946Z,1.60
2019-06-20T20:19:28.983Z,1.60
2019-06-20T20:21:57.496Z,1.77
2019-06-20T20:24:25.515Z,1.90
2019-06-20T20:27:04.487Z,2.37
2019-06-20T20:29:37.585Z,1.90
2019-06-20T20:32:09.177Z,2.07
2019-06-20T20:34:47.676Z,2.27
2019-06-20T20:37:19.166Z,2.10
2019-06-20T20:39:53.099Z,1.93
2019-06-20T20:42:22.667Z,2.13
2019-06-20T20:44:50.887Z,2.40
2019-06-20T20:47:22.572Z,2.80
2019-06-20T20:49:55.210Z,1.53
2019-06-20T20:52:25.310Z,2.00
2019-06-20T20:54:53.550Z,2.00
2019-06-20T20:57:25.441Z,1.67
2019-06-20T20:59:56.073Z,1.50
2019-06-20T21:02:25.107Z,1.87
2019-06-20T21:04:54.541Z,2.27
2019-06-20T21:07:25.001Z,1.90
2019-06-20T21:09:55.764Z,2.50
2019-06-20T21:12:30.904Z,2.00
2019-06-20T21:15:00.598Z,1.27
2019-06-20T21:17:31.684Z,1.57
2019-06-20T21:20:04.035Z,1.77
2019-06-20T21:22:34.403Z,2.37
2019-06-20T21:25:07.375Z,2.37
2019-06-20T21:27:38.201Z,3.13
2019-06-20T21:30:08.289Z,2.30
2019-06-20T21:32:38.629Z,2.33
2019-06-20T21:35:11.258Z,2.23
2019-06-20T21:37:40.017Z,2.77
2019-06-20T21:40:09.019Z,2.03
2019-06-20T21:42:38.338Z,2.20
2019-06-20T21:45:09.670Z,2.20
2019-06-20T21:47:40.379Z,2.10
2019-06-20T21:50:15.114Z,2.10
2019-06-20T21:52:48.364Z,2.73
2019-06-20T21:55:19.634Z,3.00
2019-06-20T21:57:48.553Z,2.80
2019-06-20T22:00:33.316Z,2.30
2019-06-20T22:03:11.012Z,2.50
2019-06-20T22:05:43.648Z,2.30
2019-06-20T22:08:11.805Z,2.20
2019-06-20T22:10:40.844Z,2.30
2019-06-20T22:13:10.247Z,2.20
2019-06-20T22:15:38.217Z,2.37
2019-06-20T22:18:05.820Z,2.13
2019-06-20T22:20:33.855Z,2.40
2019-06-20T22:23:02.433Z,2.20
2019-06-20T22:25:31.164Z,2.67
2019-06-20T22:28:00.519Z,2.20
2019-06-20T22:30:41.972Z,2.60
2019-06-20T22:33:12.267Z,3.03
2019-06-20T22:35:41.354Z,2.63
2019-06-20T22:38:12.921Z,2.40
2019-06-20T22:40:42.852Z,3.00
2019-06-20T22:43:11.203Z,2.17
2019-06-20T22:45:42.888Z,2.60
2019-06-20T22:48:11.404Z,2.80
2019-06-20T22:50:41.176Z,2.73
2019-06-20T22:53:09.894Z,2.70
2019-06-20T22:55:37.692Z,2.50
2019-06-20T22:58:07.816Z,2.20
2019-06-20T23:00:35.548Z,2.40
2019-06-20T23:03:05.303Z,2.83
2019-06-20T23:05:35.623Z,2.70
2019-06-20T23:08:05.810Z,2.30
2019-06-20T23:10:37.659Z,2.30
2019-06-20T23:13:08.112Z,2.30
2019-06-20T23:15:36.967Z,1.77
2019-06-20T23:18:05.461Z,2.17
2019-06-20T23:20:34.158Z,2.63
2019-06-20T23:23:02.892Z,2.30
2019-06-20T23:25:31.494Z,2.57
2019-06-20T23:28:07.474Z,2.67
2019-06-20T23:30:36.432Z,2.73
2019-06-20T23:33:07.002Z,2.27
2019-06-20T23:38:25.562Z,2.70
2019-06-20T23:40:53.640Z,2.73
2019-06-20T23:43:25.728Z,2.47
2019-06-20T23:45:54.423Z,2.50
2019-06-20T23:48:22.878Z,2.37
2019-06-20T23:50:54.673Z,2.30
2019-06-20T23:53:25.058Z,2.83
2019-06-20T23:55:55.218Z,3.00
2019-06-20T23:58:23.828Z,1.90
